Time;durP1;ratioP1;P1;durP2;ratioP2;P2;SDS_P1;SDS_P2;PMS_P1;PMS_P2;Temp;Humidity;BMP_temperature;BMP_pressure;BME280_temperature;BME280_humidity;BME280_pressure;Samples;Min_cycle;Max_cycle;Signal;HPM_P1;HPM_P2
2023/07/15 06:00:46;;;;;;;23.00;3.05;;;;;;;;;;5731262;23;20038;-84
2023/07/15 06:03:11;;;;;;;27.77;4.20;;;;;;;;;;4992864;28;20046;-84
2023/07/15 06:05:37;;;;;;;26.65;4.03;;;;;;;;;;4993732;28;20038;-83
2023/07/15 06:08:02;;;;;;;21.40;3.03;;;;;;;;;;4993837;28;20038;-83
2023/07/15 06:10:28;;;;;;;25.63;3.78;;;;;;;;;;4992504;28;20062;-84
2023/07/15 06:12:53;;;;;;;26.98;3.70;;;;;;;;;;4993108;28;20038;-84
2023/07/15 06:15:19;;;;;;;24.90;3.40;;;;;;;;;;4992687;28;20057;-83
2023/07/15 06:17:44;;;;;;;27.15;3.72;;;;;;;;;;4993344;28;20049;-84
2023/07/15 06:20:11;;;;;;;29.92;4.35;;;;;;;;;;4992963;28;20395;-84
2023/07/15 06:22:36;;;;;;;24.15;4.05;;;;;;;;;;4993205;28;20093;-84
2023/07/15 06:25:02;;;;;;;32.50;4.63;;;;;;;;;;4975903;28;20038;-84
2023/07/15 06:27:27;;;;;;;23.70;4.03;;;;;;;;;;4993029;28;20125;-85
2023/07/15 06:29:52;;;;;;;26.35;5.38;;;;;;;;;;4992604;28;20121;-85
2023/07/15 06:32:18;;;;;;;27.95;3.83;;;;;;;;;;4992311;28;20042;-84
2023/07/15 06:34:44;;;;;;;19.73;3.42;;;;;;;;;;4975573;28;20070;-85
2023/07/15 06:37:09;;;;;;;30.70;4.20;;;;;;;;;;4993019;28;20054;-84
2023/07/15 06:39:35;;;;;;;33.28;3.60;;;;;;;;;;4992697;28;20049;-85
2023/07/15 06:42:00;;;;;;;27.17;4.10;;;;;;;;;;4993009;28;20125;-86
2023/07/15 06:44:25;;;;;;;27.33;4.30;;;;;;;;;;4993068;28;20034;-85
2023/07/15 06:46:51;;;;;;;25.17;3.85;;;;;;;;;;4992197;28;20048;-84
2023/07/15 06:49:16;;;;;;;22.88;4.60;;;;;;;;;;4992226;28;20050;-83
2023/07/15 06:51:43;;;;;;;24.73;4.40;;;;;;;;;;4993222;28;20042;-83
2023/07/15 06:54:08;;;;;;;25.67;4.53;;;;;;;;;;4992281;28;20042;-84
2023/07/15 06:56:34;;;;;;;20.73;4.18;;;;;;;;;;4992844;28;20228;-85
2023/07/15 06:58:59;;;;;;;13.63;2.97;;;;;;;;;;4983480;28;20039;-86
2023/07/15 07:01:24;;;;;;;10.40;1.98;;;;;;;;;;5007128;28;20128;-85
2023/07/15 07:03:53;;;;;;;11.85;2.10;;;;;;;;;;5003272;28;20046;-84
2023/07/15 07:06:19;;;;;;;12.25;2.00;;;;;;;;;;5003442;28;20046;-87
2023/07/15 07:08:44;;;;;;;8.05;1.75;;;;;;;;;;5001122;28;20057;-86
2023/07/15 07:11:09;;;;;;;8.43;1.70;;;;;;;;;;4954989;28;20137;-85
2023/07/15 07:13:35;;;;;;;12.73;2.58;;;;;;;;;;4978530;28;20049;-89
2023/07/15 07:16:00;;;;;;;12.73;2.13;;;;;;;;;;4977787;28;20050;-86
2023/07/15 07:18:26;;;;;;;12.82;2.30;;;;;;;;;;4984934;28;20467;-89
2023/07/15 07:20:56;;;;;;;13.73;2.47;;;;;;;;;;4980777;28;20170;-86
2023/07/15 07:23:22;;;;;;;17.30;2.50;;;;;;;;;;4959151;28;20042;-86
2023/07/15 07:25:47;;;;;;;16.38;2.33;;;;;;;;;;4978415;28;20137;-89
2023/07/15 07:28:12;;;;;;;11.93;2.28;;;;;;;;;;4961146;28;20054;-87
2023/07/15 07:30:40;;;;;;;16.23;2.30;;;;;;;;;;4999179;28;20592;-88
2023/07/15 07:33:06;;;;;;;20.92;2.65;;;;;;;;;;4996862;28;20054;-86
2023/07/15 07:35:31;;;;;;;14.20;2.42;;;;;;;;;;4993019;28;20042;-87
2023/07/15 07:37:57;;;;;;;13.32;2.45;;;;;;;;;;4993761;28;20054;-88
2023/07/15 07:40:22;;;;;;;12.18;2.53;;;;;;;;;;4987326;28;20054;-88
2023/07/15 07:42:48;;;;;;;15.80;2.55;;;;;;;;;;4977543;28;20044;-90
2023/07/15 07:45:14;;;;;;;19.15;3.13;;;;;;;;;;4981398;28;20054;-86
2023/07/15 07:47:40;;;;;;;14.90;2.55;;;;;;;;;;4992498;28;20034;-88
2023/07/15 07:50:06;;;;;;;16.10;2.80;;;;;;;;;;4970215;28;20047;-88
2023/07/15 07:52:31;;;;;;;22.08;3.40;;;;;;;;;;4988420;28;20414;-87
2023/07/15 07:54:57;;;;;;;25.13;4.45;;;;;;;;;;4988308;28;20039;-89
2023/07/15 07:57:22;;;;;;;18.25;3.28;;;;;;;;;;4982314;28;20493;-91
2023/07/15 07:59:47;;;;;;;26.45;3.65;;;;;;;;;;5002176;28;20135;-88
2023/07/15 08:02:13;;;;;;;22.30;3.05;;;;;;;;;;4980967;28;20046;-87
2023/07/15 08:04:39;;;;;;;27.95;3.70;;;;;;;;;;4990892;28;20150;-88
2023/07/15 08:07:05;;;;;;;20.98;3.40;;;;;;;;;;4988973;28;20046;-90
2023/07/15 08:09:30;;;;;;;26.75;3.70;;;;;;;;;;4988853;28;20046;-90
2023/07/15 08:11:56;;;;;;;26.80;3.78;;;;;;;;;;4960038;28;20039;-89
2023/07/15 08:14:22;;;;;;;23.02;3.35;;;;;;;;;;4941467;28;20427;-90
2023/07/15 08:16:48;;;;;;;19.58;3.58;;;;;;;;;;4984028;28;20046;-87
2023/07/15 08:19:13;;;;;;;18.02;2.58;;;;;;;;;;4974990;28;20137;-89
2023/07/15 08:21:40;;;;;;;22.75;3.10;;;;;;;;;;4986896;28;20065;-88
2023/07/15 08:24:05;;;;;;;24.52;3.53;;;;;;;;;;4987215;28;20058;-87
2023/07/15 08:26:31;;;;;;;29.83;3.78;;;;;;;;;;4975817;28;20061;-89
2023/07/15 08:28:58;;;;;;;21.02;3.20;;;;;;;;;;4966823;28;20534;-87
2023/07/15 08:31:24;;;;;;;20.27;2.55;;;;;;;;;;4974149;28;20148;-87
2023/07/15 08:33:49;;;;;;;23.27;3.80;;;;;;;;;;4987575;28;20116;-89
2023/07/15 08:36:15;;;;;;;21.65;2.85;;;;;;;;;;4988987;28;20042;-87
2023/07/15 08:38:40;;;;;;;20.17;3.17;;;;;;;;;;4980416;28;20594;-88
2023/07/15 08:41:07;;;;;;;17.38;3.00;;;;;;;;;;4981063;28;20077;-89
2023/07/15 08:43:32;;;;;;;21.67;3.05;;;;;;;;;;4991276;28;20053;-88
2023/07/15 08:46:08;;;;;;;17.30;2.45;;;;;;;;;;4975345;28;20038;-90
2023/07/15 08:48:34;;;;;;;16.67;3.15;;;;;;;;;;4973159;28;20050;-86
2023/07/15 08:51:00;;;;;;;17.75;3.17;;;;;;;;;;4979215;28;20046;-87
2023/07/15 08:53:27;;;;;;;19.63;2.60;;;;;;;;;;4968872;28;20054;-87
2023/07/15 08:55:55;;;;;;;17.10;2.47;;;;;;;;;;4971550;28;20043;-85
2023/07/15 08:58:21;;;;;;;11.80;2.00;;;;;;;;;;4959648;28;20410;-90
2023/07/15 09:00:47;;;;;;;11.15;2.05;;;;;;;;;;4987785;28;20050;-85
2023/07/15 09:03:12;;;;;;;15.13;2.35;;;;;;;;;;4977739;28;20097;-87
2023/07/15 09:05:38;;;;;;;19.35;2.58;;;;;;;;;;5006709;28;20050;-84
2023/07/15 09:08:12;;;;;;;17.38;2.30;;;;;;;;;;5002902;28;20054;-86
2023/07/15 09:10:54;;;;;;;18.70;2.50;;;;;;;;;;4974172;28;20131;-85
2023/07/15 09:13:32;;;;;;;17.60;2.83;;;;;;;;;;4973984;28;20105;-88
2023/07/15 09:15:59;;;;;;;16.65;2.65;;;;;;;;;;4991136;28;20082;-88
2023/07/15 09:18:24;;;;;;;14.52;2.63;;;;;;;;;;4994782;28;20053;-88
2023/07/15 09:20:51;;;;;;;18.02;3.05;;;;;;;;;;4981192;28;20038;-87
2023/07/15 09:23:18;;;;;;;16.50;2.53;;;;;;;;;;4974833;28;20452;-87
2023/07/15 09:25:52;;;;;;;14.15;2.25;;;;;;;;;;5004695;28;20053;-87
2023/07/15 09:28:19;;;;;;;16.52;3.22;;;;;;;;;;5012242;28;20046;-87
2023/07/15 09:30:44;;;;;;;18.08;2.60;;;;;;;;;;5013023;28;20038;-87
2023/07/15 09:33:35;;;;;;;19.75;2.63;;;;;;;;;;4990395;28;20050;-87
2023/07/15 09:36:01;;;;;;;22.48;2.78;;;;;;;;;;4981449;28;20550;-88
2023/07/15 09:38:37;;;;;;;22.15;2.40;;;;;;;;;;4981164;28;20047;-89
2023/07/15 09:41:05;;;;;;;30.02;3.78;;;;;;;;;;4982432;28;20053;-86
2023/07/15 09:43:49;;;;;;;16.98;2.40;;;;;;;;;;4982871;28;20046;-87
2023/07/15 09:46:19;;;;;;;18.08;2.90;;;;;;;;;;4976599;28;20055;-85
2023/07/15 09:48:46;;;;;;;15.32;2.75;;;;;;;;;;4986254;28;20057;-85
2023/07/15 09:51:15;;;;;;;18.02;2.47;;;;;;;;;;4973824;28;20133;-85
2023/07/15 09:53:51;;;;;;;19.45;2.70;;;;;;;;;;4973522;28;20129;-86
2023/07/15 09:56:22;;;;;;;18.23;2.67;;;;;;;;;;4972403;28;20059;-86
2023/07/15 09:58:50;;;;;;;14.57;2.60;;;;;;;;;;4973503;28;20050;-86
2023/07/15 10:01:40;;;;;;;20.63;2.70;;;;;;;;;;4979754;28;20058;-86
2023/07/15 10:04:21;;;;;;;16.55;3.20;;;;;;;;;;4990424;28;20050;-84
2023/07/15 10:06:47;;;;;;;13.38;2.40;;;;;;;;;;4990833;28;20156;-84
2023/07/15 10:09:14;;;;;;;18.15;3.35;;;;;;;;;;4972202;28;20458;-84
2023/07/15 10:11:40;;;;;;;15.45;2.80;;;;;;;;;;4990139;28;20107;-85
2023/07/15 10:14:06;;;;;;;18.95;3.05;;;;;;;;;;4989491;28;20061;-88
2023/07/15 10:16:34;;;;;;;16.40;3.28;;;;;;;;;;4988312;28;20046;-87
2023/07/15 10:19:03;;;;;;;17.88;3.40;;;;;;;;;;4988177;28;20046;-86
2023/07/15 10:21:29;;;;;;;20.98;4.35;;;;;;;;;;4985263;28;20065;-84
2023/07/15 10:24:08;;;;;;;20.50;3.78;;;;;;;;;;4988309;28;20585;-85
2023/07/15 10:26:34;;;;;;;14.45;3.67;;;;;;;;;;4987772;28;20494;-85
2023/07/15 10:29:02;;;;;;;21.60;4.20;;;;;;;;;;4987398;28;20042;-85
2023/07/15 10:31:27;;;;;;;27.33;3.92;;;;;;;;;;4959375;28;20428;-87
2023/07/15 10:33:58;;;;;;;18.52;4.28;;;;;;;;;;4986661;28;20042;-85
2023/07/15 10:36:37;;;;;;;16.52;4.65;;;;;;;;;;4958385;28;20076;-85
2023/07/15 10:39:19;;;;;;;18.73;4.45;;;;;;;;;;4976987;28;20540;-84
2023/07/15 10:41:46;;;;;;;17.33;4.70;;;;;;;;;;4961314;28;20070;-84
2023/07/15 10:44:37;;;;;;;17.25;4.63;;;;;;;;;;4981401;28;20042;-86
2023/07/15 10:47:04;;;;;;;21.55;4.68;;;;;;;;;;4991303;28;20057;-85
2023/07/15 10:49:30;;;;;;;18.13;4.78;;;;;;;;;;4991561;28;20047;-85
2023/07/15 10:51:57;;;;;;;20.92;4.78;;;;;;;;;;4989941;28;20105;-84
2023/07/15 10:54:25;;;;;;;22.88;4.47;;;;;;;;;;4985291;28;20061;-83
2023/07/15 10:56:51;;;;;;;20.25;4.97;;;;;;;;;;4965909;28;20086;-83
2023/07/15 10:59:17;;;;;;;17.67;4.57;;;;;;;;;;4978191;28;20046;-84
2023/07/15 11:01:44;;;;;;;22.45;5.43;;;;;;;;;;4963352;28;20043;-87
2023/07/15 11:04:10;;;;;;;16.20;5.10;;;;;;;;;;4973220;28;20107;-84
2023/07/15 11:06:35;;;;;;;15.30;5.45;;;;;;;;;;4983149;28;20047;-85
2023/07/15 11:09:17;;;;;;;17.75;5.60;;;;;;;;;;4985821;28;20043;-84
2023/07/15 11:11:43;;;;;;;18.58;5.05;;;;;;;;;;4979689;28;20096;-82
2023/07/15 11:14:22;;;;;;;16.13;5.50;;;;;;;;;;4975068;28;20718;-83
2023/07/15 11:16:55;;;;;;;24.10;5.65;;;;;;;;;;4978430;28;20156;-84
2023/07/15 11:19:23;;;;;;;16.63;4.85;;;;;;;;;;4978959;28;20062;-86
2023/07/15 11:21:50;;;;;;;16.98;5.03;;;;;;;;;;4979005;28;20515;-86
2023/07/15 11:24:16;;;;;;;18.75;6.18;;;;;;;;;;4975348;28;20050;-86
2023/07/15 11:26:42;;;;;;;16.98;5.47;;;;;;;;;;4993994;28;20050;-86
2023/07/15 11:29:18;;;;;;;19.55;5.55;;;;;;;;;;4994874;28;20459;-88
2023/07/15 11:31:48;;;;;;;21.88;5.35;;;;;;;;;;4999514;28;20054;-87
2023/07/15 11:34:18;;;;;;;28.15;5.55;;;;;;;;;;4976607;28;20046;-87
2023/07/15 11:36:45;;;;;;;17.40;5.88;;;;;;;;;;4975311;28;20130;-85
2023/07/15 11:39:11;;;;;;;29.52;6.55;;;;;;;;;;5002534;28;20042;-85
2023/07/15 11:41:37;;;;;;;22.00;6.25;;;;;;;;;;5001527;28;20038;-85
2023/07/15 11:44:11;;;;;;;16.88;6.38;;;;;;;;;;4993786;28;20065;-86
2023/07/15 11:46:40;;;;;;;19.75;6.05;;;;;;;;;;5011044;28;20042;-85
2023/07/15 11:49:07;;;;;;;16.10;5.63;;;;;;;;;;4977957;28;20042;-84
2023/07/15 11:51:34;;;;;;;17.75;6.40;;;;;;;;;;4996954;28;20068;-85
2023/07/15 11:54:00;;;;;;;24.25;6.15;;;;;;;;;;4972962;28;20137;-84
2023/07/15 11:56:40;;;;;;;21.55;7.05;;;;;;;;;;4987433;28;20070;-85
2023/07/15 11:59:10;;;;;;;27.15;6.57;;;;;;;;;;4983853;28;20495;-85
2023/07/15 12:01:38;;;;;;;18.13;6.38;;;;;;;;;;4993937;28;20398;-84
2023/07/15 12:04:21;;;;;;;22.50;7.20;;;;;;;;;;4974091;28;20141;-83
2023/07/15 12:06:48;;;;;;;17.33;6.65;;;;;;;;;;4957706;28;20038;-84
2023/07/15 12:09:17;;;;;;;19.15;6.50;;;;;;;;;;4989803;28;20591;-84
2023/07/15 12:11:43;;;;;;;19.88;6.53;;;;;;;;;;4994319;28;20053;-84
2023/07/15 12:14:09;;;;;;;24.27;7.45;;;;;;;;;;5006728;28;20090;-83
2023/07/15 12:16:37;;;;;;;22.30;6.85;;;;;;;;;;5015597;28;20097;-85
2023/07/15 12:19:03;;;;;;;18.20;7.00;;;;;;;;;;5014766;28;20134;-85
2023/07/15 12:21:29;;;;;;;22.35;7.70;;;;;;;;;;5015142;28;20050;-84
2023/07/15 12:23:56;;;;;;;21.63;6.55;;;;;;;;;;5015677;28;20042;-85
2023/07/15 12:26:22;;;;;;;21.00;6.85;;;;;;;;;;5012468;28;20053;-84
2023/07/15 12:28:48;;;;;;;19.45;7.22;;;;;;;;;;5015192;28;20035;-84
2023/07/15 12:31:14;;;;;;;20.95;7.85;;;;;;;;;;5010254;28;20054;-83
2023/07/15 12:33:41;;;;;;;20.88;7.53;;;;;;;;;;4998854;28;20038;-83
2023/07/15 12:36:09;;;;;;;26.30;7.63;;;;;;;;;;5004800;28;20034;-83
2023/07/15 12:38:34;;;;;;;21.88;7.00;;;;;;;;;;5000920;28;20057;-86
2023/07/15 12:41:02;;;;;;;22.20;7.00;;;;;;;;;;4989638;28;20062;-84
2023/07/15 12:43:27;;;;;;;22.52;7.50;;;;;;;;;;4999433;28;20030;-86
2023/07/15 12:45:53;;;;;;;22.63;6.32;;;;;;;;;;5007655;28;20054;-84
2023/07/15 12:48:19;;;;;;;21.80;6.32;;;;;;;;;;5007497;28;20074;-85
2023/07/15 12:50:45;;;;;;;18.77;6.50;;;;;;;;;;4981598;28;20054;-84
2023/07/15 12:53:10;;;;;;;19.70;6.00;;;;;;;;;;4988090;28;20039;-84
2023/07/15 12:55:36;;;;;;;19.98;6.97;;;;;;;;;;5005662;28;20043;-86
2023/07/15 12:58:01;;;;;;;19.67;6.57;;;;;;;;;;5006268;28;20038;-84
2023/07/15 13:00:27;;;;;;;20.98;6.43;;;;;;;;;;4987965;28;20050;-87
2023/07/15 13:02:52;;;;;;;22.73;6.63;;;;;;;;;;5001068;28;20042;-85
2023/07/15 13:05:18;;;;;;;20.25;6.47;;;;;;;;;;5013130;28;20400;-84
2023/07/15 13:07:43;;;;;;;23.92;5.85;;;;;;;;;;4985622;28;20069;-83
2023/07/15 13:10:10;;;;;;;22.23;7.70;;;;;;;;;;4979244;28;20043;-84
2023/07/15 13:12:35;;;;;;;17.77;6.40;;;;;;;;;;4987802;28;20601;-85
2023/07/15 13:15:00;;;;;;;17.48;6.10;;;;;;;;;;4974940;28;20043;-86
2023/07/15 13:17:26;;;;;;;21.90;6.53;;;;;;;;;;4967232;28;20049;-85
2023/07/15 13:19:51;;;;;;;19.70;6.90;;;;;;;;;;4983016;28;20093;-86
2023/07/15 13:22:17;;;;;;;25.75;7.00;;;;;;;;;;4977635;28;20046;-84
2023/07/15 13:24:42;;;;;;;21.05;7.00;;;;;;;;;;4980949;28;20070;-84
2023/07/15 13:27:08;;;;;;;24.13;8.05;;;;;;;;;;4986080;28;20043;-85
2023/07/15 13:29:33;;;;;;;19.67;6.40;;;;;;;;;;4985789;28;20494;-85
2023/07/15 13:31:59;;;;;;;30.83;7.32;;;;;;;;;;4968447;28;20096;-86
2023/07/15 13:34:24;;;;;;;23.63;6.72;;;;;;;;;;4972126;28;20585;-85
2023/07/15 13:36:49;;;;;;;19.02;7.38;;;;;;;;;;4986613;28;20361;-85
2023/07/15 13:39:31;;;;;;;23.02;7.15;;;;;;;;;;4981576;28;20062;-83
2023/07/15 13:41:56;;;;;;;23.33;6.93;;;;;;;;;;4984955;28;20137;-85
2023/07/15 13:44:22;;;;;;;22.75;6.90;;;;;;;;;;4990672;28;20521;-84
2023/07/15 13:46:47;;;;;;;29.58;8.10;;;;;;;;;;4984869;28;20082;-87
2023/07/15 13:49:13;;;;;;;24.58;7.85;;;;;;;;;;4972041;28;20046;-87
2023/07/15 13:51:38;;;;;;;24.92;7.38;;;;;;;;;;4989341;28;20519;-86
2023/07/15 13:54:04;;;;;;;23.50;7.15;;;;;;;;;;4969302;28;20047;-84
2023/07/15 13:56:29;;;;;;;24.73;8.38;;;;;;;;;;4990848;28;20046;-86
2023/07/15 13:58:55;;;;;;;29.58;8.10;;;;;;;;;;4992031;28;20034;-87
2023/07/15 14:01:20;;;;;;;30.52;8.00;;;;;;;;;;4992107;28;20064;-85
2023/07/15 14:03:46;;;;;;;26.30;8.23;;;;;;;;;;4982427;28;20050;-87
2023/07/15 14:06:11;;;;;;;25.33;8.23;;;;;;;;;;4985651;28;20042;-86
2023/07/15 14:08:37;;;;;;;27.65;8.50;;;;;;;;;;4984834;28;20513;-86
2023/07/15 14:11:03;;;;;;;26.65;8.65;;;;;;;;;;4981252;28;20907;-85
2023/07/15 14:13:28;;;;;;;22.75;8.05;;;;;;;;;;4966496;28;20046;-83
2023/07/15 14:15:54;;;;;;;24.15;8.48;;;;;;;;;;4981816;28;20039;-86
2023/07/15 14:18:19;;;;;;;28.02;8.90;;;;;;;;;;4974567;28;20039;-85
2023/07/15 14:20:44;;;;;;;24.92;9.13;;;;;;;;;;4977212;28;20042;-88
2023/07/15 14:23:10;;;;;;;24.33;9.95;;;;;;;;;;4990701;28;20043;-87
2023/07/15 14:25:35;;;;;;;25.55;11.00;;;;;;;;;;4989397;28;20067;-88
2023/07/15 14:28:01;;;;;;;24.77;10.50;;;;;;;;;;4994554;28;20041;-87
2023/07/15 14:30:26;;;;;;;28.05;11.10;;;;;;;;;;4993429;28;20452;-90
2023/07/15 14:32:51;;;;;;;27.67;11.27;;;;;;;;;;4993990;28;20125;-89
2023/07/15 14:35:17;;;;;;;30.00;11.38;;;;;;;;;;4975727;28;20058;-86
2023/07/15 14:37:42;;;;;;;31.63;12.07;;;;;;;;;;4992441;28;20062;-85
2023/07/15 14:40:08;;;;;;;25.58;11.20;;;;;;;;;;4980253;28;20462;-86
2023/07/15 14:42:34;;;;;;;29.95;11.57;;;;;;;;;;4982271;28;20508;-86
2023/07/15 14:44:59;;;;;;;26.85;11.80;;;;;;;;;;4982559;28;20159;-87
2023/07/15 14:47:24;;;;;;;33.47;11.57;;;;;;;;;;4973984;28;20129;-83
2023/07/15 14:49:50;;;;;;;26.45;11.65;;;;;;;;;;4980557;28;20506;-86
2023/07/15 14:52:15;;;;;;;35.55;13.25;;;;;;;;;;4964374;28;20047;-86
2023/07/15 14:54:40;;;;;;;25.67;13.68;;;;;;;;;;4962129;28;20047;-88
2023/07/15 14:57:06;;;;;;;38.10;12.77;;;;;;;;;;4971332;28;20097;-83
2023/07/15 14:59:31;;;;;;;30.00;12.25;;;;;;;;;;4981411;28;20492;-82
2023/07/15 15:01:57;;;;;;;28.77;13.43;;;;;;;;;;4987792;28;20058;-85
2023/07/15 15:04:24;;;;;;;36.33;13.63;;;;;;;;;;4983153;28;20473;-82
2023/07/15 15:06:49;;;;;;;37.08;13.52;;;;;;;;;;4980445;28;20530;-84
2023/07/15 15:09:15;;;;;;;34.55;13.52;;;;;;;;;;4964046;28;20043;-82
2023/07/15 15:11:40;;;;;;;35.95;13.32;;;;;;;;;;4982050;28;20047;-80
2023/07/15 15:14:06;;;;;;;38.17;13.43;;;;;;;;;;4980370;28;20523;-83
2023/07/15 15:16:31;;;;;;;29.98;13.75;;;;;;;;;;4981665;28;20597;-82
2023/07/15 15:18:56;;;;;;;35.17;13.32;;;;;;;;;;4984545;28;20046;-83
2023/07/15 15:21:22;;;;;;;32.70;13.95;;;;;;;;;;4984657;28;20050;-83
2023/07/15 15:23:47;;;;;;;32.88;13.77;;;;;;;;;;4982256;28;20042;-84
2023/07/15 15:26:14;;;;;;;36.70;14.48;;;;;;;;;;4980150;28;20053;-81
2023/07/15 15:28:41;;;;;;;39.55;14.38;;;;;;;;;;4979282;28;20578;-82
2023/07/15 15:31:07;;;;;;;34.67;15.02;;;;;;;;;;4973499;28;20042;-81
2023/07/15 15:33:32;;;;;;;32.65;15.57;;;;;;;;;;4983675;28;20049;-83
2023/07/15 15:35:57;;;;;;;33.88;14.65;;;;;;;;;;4986694;28;20569;-83
2023/07/15 15:38:23;;;;;;;39.65;16.17;;;;;;;;;;4975142;28;20063;-83
2023/07/15 15:40:48;;;;;;;35.88;15.20;;;;;;;;;;4972120;28;20478;-84
2023/07/15 15:43:13;;;;;;;37.13;16.05;;;;;;;;;;4973489;28;20042;-84
2023/07/15 15:45:39;;;;;;;28.23;14.90;;;;;;;;;;4971500;28;20042;-83
2023/07/15 15:48:05;;;;;;;35.35;15.40;;;;;;;;;;4987868;28;20042;-86
2023/07/15 15:50:30;;;;;;;40.88;15.75;;;;;;;;;;4984244;28;20480;-85
2023/07/15 15:52:56;;;;;;;30.60;15.02;;;;;;;;;;4983953;28;20034;-84
2023/07/15 15:55:21;;;;;;;37.30;15.60;;;;;;;;;;4978978;28;20037;-85
2023/07/15 15:57:47;;;;;;;39.50;16.20;;;;;;;;;;4970949;28;20058;-82
2023/07/15 16:00:23;;;;;;;37.10;16.10;;;;;;;;;;4975142;28;20499;-84
2023/07/15 16:02:48;;;;;;;40.72;15.43;;;;;;;;;;4978979;28;20066;-84
2023/07/15 16:05:14;;;;;;;32.63;15.40;;;;;;;;;;4982191;28;20723;-86
2023/07/15 16:07:39;;;;;;;36.13;16.02;;;;;;;;;;4982923;28;20097;-84
2023/07/15 16:10:05;;;;;;;33.95;16.27;;;;;;;;;;4979500;28;20127;-84
2023/07/15 16:12:31;;;;;;;37.75;17.63;;;;;;;;;;4983660;28;20506;-87
2023/07/15 16:14:57;;;;;;;43.08;17.23;;;;;;;;;;4983151;28;20117;-85
2023/07/15 16:17:22;;;;;;;40.28;15.70;;;;;;;;;;4985662;28;20042;-85
2023/07/15 16:19:48;;;;;;;34.45;15.52;;;;;;;;;;4979203;28;20096;-88
2023/07/15 16:22:13;;;;;;;41.45;17.00;;;;;;;;;;4976495;28;20071;-86
2023/07/15 16:24:38;;;;;;;37.63;16.52;;;;;;;;;;4959295;28;20195;-85
2023/07/15 16:27:05;;;;;;;29.48;15.13;;;;;;;;;;4981807;28;20069;-83
2023/07/15 16:29:30;;;;;;;38.47;15.65;;;;;;;;;;4974134;28;20113;-87
2023/07/15 16:31:56;;;;;;;36.85;15.57;;;;;;;;;;4986169;28;20038;-87
2023/07/15 16:34:21;;;;;;;37.45;15.15;;;;;;;;;;4969319;28;20519;-88
2023/07/15 16:36:46;;;;;;;35.97;15.15;;;;;;;;;;4986937;28;20057;-85
2023/07/15 16:39:12;;;;;;;31.48;14.27;;;;;;;;;;4968317;28;20050;-86
2023/07/15 16:41:39;;;;;;;31.58;13.65;;;;;;;;;;4983200;28;20038;-85
2023/07/15 16:44:05;;;;;;;35.47;13.70;;;;;;;;;;4971364;28;20050;-87
2023/07/15 16:46:30;;;;;;;30.80;13.60;;;;;;;;;;4970689;28;20094;-88
2023/07/15 16:48:55;;;;;;;37.53;14.50;;;;;;;;;;4971998;28;20043;-86
2023/07/15 16:51:24;;;;;;;33.40;13.45;;;;;;;;;;4972375;28;20043;-90
2023/07/15 16:53:49;;;;;;;37.88;13.52;;;;;;;;;;4940187;29;20562;-88
2023/07/15 16:56:15;;;;;;;40.78;14.30;;;;;;;;;;4962089;28;20070;-88
2023/07/15 16:58:40;;;;;;;33.58;13.77;;;;;;;;;;4977609;28;20046;-86
2023/07/15 17:01:06;;;;;;;40.30;14.43;;;;;;;;;;4975456;28;20071;-83
2023/07/15 17:03:35;;;;;;;40.80;14.20;;;;;;;;;;4982310;28;20046;-84
2023/07/15 17:06:00;;;;;;;40.38;15.52;;;;;;;;;;4995072;28;20073;-82
2023/07/15 17:08:26;;;;;;;34.47;15.55;;;;;;;;;;4987596;28;20066;-86
2023/07/15 17:10:51;;;;;;;37.67;15.85;;;;;;;;;;4989636;28;20054;-83
2023/07/15 17:13:17;;;;;;;37.92;16.58;;;;;;;;;;4987634;28;20557;-82
2023/07/15 17:15:42;;;;;;;46.28;15.70;;;;;;;;;;4989167;28;20045;-83
2023/07/15 17:18:08;;;;;;;39.63;15.90;;;;;;;;;;4982544;28;20180;-82
2023/07/15 17:20:33;;;;;;;42.78;15.20;;;;;;;;;;4976604;28;20471;-85
2023/07/15 17:22:59;;;;;;;52.05;17.00;;;;;;;;;;4984624;28;20142;-84
2023/07/15 17:25:24;;;;;;;44.22;16.50;;;;;;;;;;4992357;28;20594;-86
2023/07/15 17:27:50;;;;;;;45.92;16.83;;;;;;;;;;4988890;28;20153;-81
2023/07/15 17:30:16;;;;;;;51.55;16.48;;;;;;;;;;4988953;28;20046;-84
2023/07/15 17:32:41;;;;;;;48.67;16.05;;;;;;;;;;4992422;28;20125;-82
2023/07/15 17:35:07;;;;;;;47.38;15.35;;;;;;;;;;4986191;28;20129;-85
2023/07/15 17:37:32;;;;;;;39.63;16.70;;;;;;;;;;4984931;28;20410;-83
2023/07/15 17:39:58;;;;;;;45.90;15.80;;;;;;;;;;4988430;28;20050;-83
2023/07/15 17:42:23;;;;;;;42.55;15.18;;;;;;;;;;4988954;28;20054;-85
2023/07/15 17:44:49;;;;;;;36.85;13.25;;;;;;;;;;4967080;28;20035;-84
2023/07/15 17:47:14;;;;;;;30.88;12.55;;;;;;;;;;4987754;28;20108;-89
2023/07/15 17:49:40;;;;;;;31.58;12.05;;;;;;;;;;4983322;28;20057;-84
2023/07/15 17:52:06;;;;;;;29.67;11.95;;;;;;;;;;4966416;28;20128;-85
2023/07/15 17:54:32;;;;;;;35.10;13.05;;;;;;;;;;4985181;28;20047;-89
2023/07/15 17:56:57;;;;;;;32.55;11.85;;;;;;;;;;4977168;28;20053;-87
2023/07/15 17:59:23;;;;;;;38.42;12.32;;;;;;;;;;4990587;28;20439;-85
2023/07/15 18:01:49;;;;;;;27.20;11.57;;;;;;;;;;4992703;28;20050;-84
2023/07/15 18:04:15;;;;;;;30.02;12.23;;;;;;;;;;4984073;28;20058;-85
2023/07/15 18:06:42;;;;;;;40.13;13.30;;;;;;;;;;4981404;28;20055;-87
2023/07/15 18:09:11;;;;;;;35.80;12.20;;;;;;;;;;4986666;28;20098;-87
2023/07/15 18:11:38;;;;;;;36.63;13.23;;;;;;;;;;4978150;28;20046;-85
2023/07/15 18:14:04;;;;;;;36.08;13.13;;;;;;;;;;4993477;28;20066;-86
2023/07/15 18:16:29;;;;;;;37.50;13.32;;;;;;;;;;4985208;28;20106;-85
2023/07/15 18:18:55;;;;;;;40.75;13.48;;;;;;;;;;4989754;28;20061;-86
2023/07/15 18:21:20;;;;;;;37.88;13.68;;;;;;;;;;4991822;28;20042;-85
2023/07/15 18:23:46;;;;;;;40.60;13.93;;;;;;;;;;4992911;28;20081;-87
2023/07/15 18:26:12;;;;;;;47.97;14.40;;;;;;;;;;4977692;28;20043;-86
2023/07/15 18:28:37;;;;;;;48.33;14.48;;;;;;;;;;4966675;28;20082;-88
2023/07/15 18:31:03;;;;;;;42.75;14.75;;;;;;;;;;4997660;28;20157;-87
2023/07/15 18:33:28;;;;;;;44.38;14.35;;;;;;;;;;4995832;28;20046;-87
2023/07/15 18:35:54;;;;;;;50.78;15.55;;;;;;;;;;4992694;28;20069;-88
2023/07/15 18:38:19;;;;;;;48.50;14.70;;;;;;;;;;4996636;28;20141;-84
2023/07/15 18:40:46;;;;;;;47.08;15.45;;;;;;;;;;4996018;28;20396;-86
2023/07/15 18:43:11;;;;;;;44.55;15.75;;;;;;;;;;4993820;28;20520;-86
2023/07/15 18:45:37;;;;;;;50.13;15.35;;;;;;;;;;4976037;28;20043;-84
2023/07/15 18:48:03;;;;;;;51.05;16.00;;;;;;;;;;4989863;28;20045;-84
2023/07/15 18:50:29;;;;;;;56.47;16.35;;;;;;;;;;4994153;28;20056;-84
2023/07/15 18:52:54;;;;;;;48.83;16.48;;;;;;;;;;4989685;28;20125;-85
2023/07/15 18:55:20;;;;;;;53.75;15.93;;;;;;;;;;4979615;28;20497;-85
2023/07/15 18:57:45;;;;;;;53.67;16.13;;;;;;;;;;4996106;28;20101;-83
2023/07/15 19:00:11;;;;;;;53.90;16.83;;;;;;;;;;4998675;28;20308;-84
2023/07/15 19:02:38;;;;;;;50.25;16.42;;;;;;;;;;4994828;28;20468;-85
2023/07/15 19:05:05;;;;;;;54.53;16.83;;;;;;;;;;5002853;28;20447;-84
2023/07/15 19:07:30;;;;;;;52.28;17.20;;;;;;;;;;5001952;28;20111;-86
2023/07/15 19:09:56;;;;;;;53.08;17.48;;;;;;;;;;4986761;28;20129;-86
2023/07/15 19:12:21;;;;;;;51.13;16.90;;;;;;;;;;4981803;28;20052;-84
2023/07/15 19:14:48;;;;;;;50.92;16.85;;;;;;;;;;5001568;28;20418;-83
2023/07/15 19:17:13;;;;;;;53.67;17.77;;;;;;;;;;5000720;28;20042;-85
2023/07/15 19:19:39;;;;;;;55.70;17.05;;;;;;;;;;5001677;28;20104;-84
2023/07/15 19:22:05;;;;;;;60.50;18.75;;;;;;;;;;4994107;28;20035;-84
2023/07/15 19:24:30;;;;;;;60.58;18.10;;;;;;;;;;4989886;28;20049;-84
2023/07/15 19:26:55;;;;;;;72.90;19.55;;;;;;;;;;4996304;28;20065;-84
2023/07/15 19:29:21;;;;;;;52.67;18.40;;;;;;;;;;5008787;28;20050;-84
2023/07/15 19:31:46;;;;;;;49.38;17.02;;;;;;;;;;5003580;28;20030;-86
2023/07/15 19:34:12;;;;;;;52.58;17.35;;;;;;;;;;5014965;28;20039;-82
2023/07/15 19:36:37;;;;;;;59.60;18.40;;;;;;;;;;5014989;28;20061;-85
2023/07/15 19:39:03;;;;;;;62.80;17.95;;;;;;;;;;5011627;28;20047;-85
2023/07/15 19:41:29;;;;;;;66.50;18.15;;;;;;;;;;4995036;28;20043;-85
2023/07/15 19:43:55;;;;;;;64.70;18.08;;;;;;;;;;4995423;28;20039;-84
2023/07/15 19:46:21;;;;;;;57.60;18.83;;;;;;;;;;5002297;28;20034;-83
2023/07/15 19:48:46;;;;;;;65.07;18.02;;;;;;;;;;5003459;28;20050;-84
2023/07/15 19:51:12;;;;;;;58.30;17.65;;;;;;;;;;5007588;28;20046;-86
2023/07/15 19:53:37;;;;;;;55.25;17.23;;;;;;;;;;4984101;28;20046;-85
2023/07/15 19:56:03;;;;;;;59.85;18.52;;;;;;;;;;4995942;28;20058;-87
2023/07/15 19:58:30;;;;;;;57.85;18.90;;;;;;;;;;4999783;28;20042;-83
2023/07/15 20:00:56;;;;;;;60.28;18.10;;;;;;;;;;4947892;28;1226832;-84
2023/07/15 20:03:21;;;;;;;50.30;17.90;;;;;;;;;;4979011;28;20027;-88
2023/07/15 20:05:47;;;;;;;58.50;19.67;;;;;;;;;;4981158;28;20118;-88
2023/07/15 20:08:12;;;;;;;68.88;17.95;;;;;;;;;;4966588;28;20042;-87
2023/07/15 20:10:37;;;;;;;55.50;17.75;;;;;;;;;;4976403;28;20053;-88
2023/07/15 20:13:03;;;;;;;74.78;19.60;;;;;;;;;;4982182;28;20051;-87
2023/07/15 20:15:29;;;;;;;61.53;18.60;;;;;;;;;;4979833;28;20079;-87
2023/07/15 20:17:54;;;;;;;52.55;16.88;;;;;;;;;;4982116;28;20027;-87
2023/07/15 20:20:20;;;;;;;56.97;17.70;;;;;;;;;;4984255;28;20031;-89